sensor_id;sensor_type;location;lat;lon;timestamp;P1;durP1;ratioP1;P2;durP2;ratioP2
12212;SDS011;6169;44.158;22.788;2024-03-08T00:03:49;31.53;;;15.73;;
12212;SDS011;6169;44.158;22.788;2024-03-08T00:08:52;31.60;;;16.50;;
12212;SDS011;6169;44.158;22.788;2024-03-08T00:13:55;32.83;;;17.43;;
12212;SDS011;6169;44.158;22.788;2024-03-08T00:18:57;31.47;;;17.57;;
12212;SDS011;6169;44.158;22.788;2024-03-08T00:23:59;39.00;;;19.80;;
12212;SDS011;6169;44.158;22.788;2024-03-08T00:29:03;40.90;;;17.03;;
12212;SDS011;6169;44.158;22.788;2024-03-08T00:34:05;34.27;;;16.80;;
12212;SDS011;6169;44.158;22.788;2024-03-08T00:39:07;37.60;;;17.77;;
12212;SDS011;6169;44.158;22.788;2024-03-08T00:44:10;39.43;;;18.47;;
12212;SDS011;6169;44.158;22.788;2024-03-08T00:49:12;34.53;;;17.47;;
12212;SDS011;6169;44.158;22.788;2024-03-08T00:54:15;38.77;;;19.60;;
12212;SDS011;6169;44.158;22.788;2024-03-08T00:59:19;38.60;;;20.43;;
12212;SDS011;6169;44.158;22.788;2024-03-08T01:04:21;38.40;;;18.13;;
12212;SDS011;6169;44.158;22.788;2024-03-08T01:09:23;36.90;;;19.50;;
12212;SDS011;6169;44.158;22.788;2024-03-08T01:14:28;38.10;;;19.57;;
12212;SDS011;6169;44.158;22.788;2024-03-08T01:19:31;36.20;;;19.00;;
12212;SDS011;6169;44.158;22.788;2024-03-08T01:24:33;35.37;;;18.77;;
12212;SDS011;6169;44.158;22.788;2024-03-08T01:29:37;33.03;;;17.27;;
12212;SDS011;6169;44.158;22.788;2024-03-08T01:34:39;31.67;;;18.20;;
12212;SDS011;6169;44.158;22.788;2024-03-08T01:39:42;30.83;;;18.80;;
12212;SDS011;6169;44.158;22.788;2024-03-08T01:44:45;31.57;;;17.57;;
12212;SDS011;6169;44.158;22.788;2024-03-08T01:49:47;36.57;;;18.33;;
12212;SDS011;6169;44.158;22.788;2024-03-08T01:54:50;34.10;;;19.47;;
12212;SDS011;6169;44.158;22.788;2024-03-08T01:59:53;32.03;;;17.30;;
12212;SDS011;6169;44.158;22.788;2024-03-08T02:04:57;34.93;;;18.60;;
12212;SDS011;6169;44.158;22.788;2024-03-08T02:09:59;36.07;;;19.37;;
12212;SDS011;6169;44.158;22.788;2024-03-08T02:15:02;38.73;;;19.53;;
12212;SDS011;6169;44.158;22.788;2024-03-08T02:20:07;31.90;;;17.53;;
12212;SDS011;6169;44.158;22.788;2024-03-08T02:25:12;37.60;;;19.67;;
12212;SDS011;6169;44.158;22.788;2024-03-08T02:30:14;31.77;;;19.43;;
12212;SDS011;6169;44.158;22.788;2024-03-08T02:35:17;33.90;;;16.83;;
12212;SDS011;6169;44.158;22.788;2024-03-08T02:40:21;33.43;;;17.43;;
12212;SDS011;6169;44.158;22.788;2024-03-08T02:45:23;37.13;;;18.37;;
12212;SDS011;6169;44.158;22.788;2024-03-08T02:50:26;29.90;;;16.10;;
12212;SDS011;6169;44.158;22.788;2024-03-08T02:55:30;41.67;;;18.83;;
12212;SDS011;6169;44.158;22.788;2024-03-08T03:00:33;35.57;;;17.00;;
12212;SDS011;6169;44.158;22.788;2024-03-08T03:05:35;31.83;;;18.03;;
12212;SDS011;6169;44.158;22.788;2024-03-08T03:10:39;29.87;;;16.00;;
12212;SDS011;6169;44.158;22.788;2024-03-08T03:15:41;32.73;;;16.83;;
12212;SDS011;6169;44.158;22.788;2024-03-08T03:20:43;29.97;;;17.23;;
12212;SDS011;6169;44.158;22.788;2024-03-08T03:25:46;28.03;;;16.17;;
12212;SDS011;6169;44.158;22.788;2024-03-08T03:30:48;35.20;;;18.33;;
12212;SDS011;6169;44.158;22.788;2024-03-08T03:35:51;38.67;;;18.23;;
12212;SDS011;6169;44.158;22.788;2024-03-08T03:40:54;37.00;;;18.83;;
12212;SDS011;6169;44.158;22.788;2024-03-08T03:45:57;34.57;;;16.57;;
12212;SDS011;6169;44.158;22.788;2024-03-08T03:50:59;29.70;;;16.93;;
12212;SDS011;6169;44.158;22.788;2024-03-08T03:56:03;34.73;;;17.83;;
12212;SDS011;6169;44.158;22.788;2024-03-08T04:01:07;38.97;;;19.47;;
12212;SDS011;6169;44.158;22.788;2024-03-08T04:06:09;42.37;;;21.17;;
12212;SDS011;6169;44.158;22.788;2024-03-08T04:11:13;34.37;;;18.40;;
12212;SDS011;6169;44.158;22.788;2024-03-08T04:16:16;40.33;;;20.33;;
12212;SDS011;6169;44.158;22.788;2024-03-08T04:21:19;31.97;;;18.30;;
12212;SDS011;6169;44.158;22.788;2024-03-08T04:26:22;38.17;;;18.13;;
12212;SDS011;6169;44.158;22.788;2024-03-08T04:31:26;30.30;;;18.77;;
12212;SDS011;6169;44.158;22.788;2024-03-08T04:36:28;37.10;;;19.70;;
12212;SDS011;6169;44.158;22.788;2024-03-08T04:41:31;36.70;;;19.30;;
12212;SDS011;6169;44.158;22.788;2024-03-08T04:46:34;39.27;;;21.40;;
12212;SDS011;6169;44.158;22.788;2024-03-08T04:51:36;34.53;;;17.97;;
12212;SDS011;6169;44.158;22.788;2024-03-08T04:56:40;39.60;;;21.40;;
12212;SDS011;6169;44.158;22.788;2024-03-08T05:01:42;38.33;;;20.07;;
12212;SDS011;6169;44.158;22.788;2024-03-08T05:06:44;35.83;;;22.43;;
12212;SDS011;6169;44.158;22.788;2024-03-08T05:11:48;39.57;;;22.00;;
12212;SDS011;6169;44.158;22.788;2024-03-08T05:16:50;34.27;;;20.67;;
12212;SDS011;6169;44.158;22.788;2024-03-08T05:21:52;32.90;;;20.17;;
12212;SDS011;6169;44.158;22.788;2024-03-08T05:26:56;37.13;;;20.33;;
12212;SDS011;6169;44.158;22.788;2024-03-08T05:31:59;50.63;;;27.00;;
12212;SDS011;6169;44.158;22.788;2024-03-08T05:37:03;39.67;;;21.70;;
12212;SDS011;6169;44.158;22.788;2024-03-08T05:42:06;50.37;;;24.83;;
12212;SDS011;6169;44.158;22.788;2024-03-08T05:47:09;44.70;;;21.90;;
12212;SDS011;6169;44.158;22.788;2024-03-08T05:52:11;39.30;;;21.23;;
12212;SDS011;6169;44.158;22.788;2024-03-08T05:57:16;41.67;;;23.37;;
12212;SDS011;6169;44.158;22.788;2024-03-08T06:02:18;39.50;;;21.53;;
12212;SDS011;6169;44.158;22.788;2024-03-08T06:07:20;46.53;;;25.80;;
12212;SDS011;6169;44.158;22.788;2024-03-08T06:12:23;43.37;;;22.03;;
12212;SDS011;6169;44.158;22.788;2024-03-08T06:17:29;40.78;;;21.40;;
12212;SDS011;6169;44.158;22.788;2024-03-08T06:22:31;36.57;;;19.63;;
12212;SDS011;6169;44.158;22.788;2024-03-08T06:27:34;37.87;;;19.27;;
12212;SDS011;6169;44.158;22.788;2024-03-08T06:32:36;32.13;;;20.10;;
12212;SDS011;6169;44.158;22.788;2024-03-08T06:37:39;36.30;;;20.25;;
12212;SDS011;6169;44.158;22.788;2024-03-08T06:42:43;39.40;;;19.90;;
12212;SDS011;6169;44.158;22.788;2024-03-08T06:47:45;36.47;;;20.23;;
12212;SDS011;6169;44.158;22.788;2024-03-08T06:52:48;44.77;;;23.43;;
12212;SDS011;6169;44.158;22.788;2024-03-08T06:57:55;32.77;;;19.07;;
12212;SDS011;6169;44.158;22.788;2024-03-08T07:02:58;37.43;;;21.07;;
12212;SDS011;6169;44.158;22.788;2024-03-08T07:08:01;42.30;;;20.67;;
12212;SDS011;6169;44.158;22.788;2024-03-08T07:13:05;37.70;;;20.47;;
12212;SDS011;6169;44.158;22.788;2024-03-08T07:18:07;35.65;;;21.33;;
12212;SDS011;6169;44.158;22.788;2024-03-08T07:23:14;41.40;;;23.10;;
12212;SDS011;6169;44.158;22.788;2024-03-08T07:28:38;41.97;;;20.92;;
12212;SDS011;6169;44.158;22.788;2024-03-08T07:33:40;44.58;;;23.60;;
12212;SDS011;6169;44.158;22.788;2024-03-08T07:38:42;38.75;;;19.55;;
12212;SDS011;6169;44.158;22.788;2024-03-08T07:43:47;38.63;;;21.60;;
12212;SDS011;6169;44.158;22.788;2024-03-08T07:48:50;37.47;;;20.08;;
12212;SDS011;6169;44.158;22.788;2024-03-08T07:53:52;36.70;;;20.77;;
12212;SDS011;6169;44.158;22.788;2024-03-08T07:58:56;33.97;;;19.23;;
12212;SDS011;6169;44.158;22.788;2024-03-08T08:03:58;39.05;;;20.88;;
12212;SDS011;6169;44.158;22.788;2024-03-08T08:09:01;39.13;;;21.83;;
12212;SDS011;6169;44.158;22.788;2024-03-08T08:14:05;41.33;;;21.20;;
12212;SDS011;6169;44.158;22.788;2024-03-08T08:19:09;42.55;;;23.40;;
12212;SDS011;6169;44.158;22.788;2024-03-08T08:24:12;35.25;;;20.77;;
12212;SDS011;6169;44.158;22.788;2024-03-08T08:29:15;41.53;;;20.95;;
12212;SDS011;6169;44.158;22.788;2024-03-08T08:34:17;36.73;;;22.17;;
12212;SDS011;6169;44.158;22.788;2024-03-08T08:39:19;36.28;;;20.63;;
12212;SDS011;6169;44.158;22.788;2024-03-08T08:44:24;35.95;;;20.58;;
12212;SDS011;6169;44.158;22.788;2024-03-08T08:49:27;32.20;;;18.85;;
12212;SDS011;6169;44.158;22.788;2024-03-08T08:54:30;36.00;;;19.83;;
12212;SDS011;6169;44.158;22.788;2024-03-08T08:59:34;31.17;;;17.85;;
12212;SDS011;6169;44.158;22.788;2024-03-08T09:04:36;37.65;;;19.88;;
12212;SDS011;6169;44.158;22.788;2024-03-08T09:09:38;36.83;;;19.77;;
12212;SDS011;6169;44.158;22.788;2024-03-08T09:14:43;41.00;;;24.65;;
12212;SDS011;6169;44.158;22.788;2024-03-08T09:19:45;37.03;;;20.83;;
12212;SDS011;6169;44.158;22.788;2024-03-08T09:24:47;45.38;;;20.00;;
12212;SDS011;6169;44.158;22.788;2024-03-08T09:29:51;35.30;;;20.85;;
12212;SDS011;6169;44.158;22.788;2024-03-08T09:34:53;35.03;;;19.65;;
12212;SDS011;6169;44.158;22.788;2024-03-08T09:39:56;37.80;;;22.92;;
12212;SDS011;6169;44.158;22.788;2024-03-08T09:45:00;37.45;;;21.73;;
12212;SDS011;6169;44.158;22.788;2024-03-08T09:50:02;40.72;;;21.73;;
12212;SDS011;6169;44.158;22.788;2024-03-08T09:55:05;36.53;;;20.50;;
12212;SDS011;6169;44.158;22.788;2024-03-08T10:00:10;42.58;;;22.10;;
12212;SDS011;6169;44.158;22.788;2024-03-08T10:05:24;41.13;;;21.88;;
12212;SDS011;6169;44.158;22.788;2024-03-08T10:10:26;39.90;;;22.40;;
12212;SDS011;6169;44.158;22.788;2024-03-08T10:15:30;39.55;;;21.67;;
12212;SDS011;6169;44.158;22.788;2024-03-08T10:20:33;36.83;;;21.13;;
12212;SDS011;6169;44.158;22.788;2024-03-08T10:25:35;45.05;;;23.13;;
12212;SDS011;6169;44.158;22.788;2024-03-08T10:30:39;33.85;;;21.90;;
12212;SDS011;6169;44.158;22.788;2024-03-08T10:35:49;38.17;;;21.05;;
12212;SDS011;6169;44.158;22.788;2024-03-08T10:40:51;38.03;;;20.20;;
12212;SDS011;6169;44.158;22.788;2024-03-08T10:46:00;35.00;;;19.77;;
12212;SDS011;6169;44.158;22.788;2024-03-08T10:51:14;37.33;;;20.15;;
12212;SDS011;6169;44.158;22.788;2024-03-08T10:56:17;36.83;;;19.92;;
12212;SDS011;6169;44.158;22.788;2024-03-08T11:01:20;41.60;;;19.70;;
12212;SDS011;6169;44.158;22.788;2024-03-08T11:06:29;30.25;;;19.58;;
12212;SDS011;6169;44.158;22.788;2024-03-08T11:11:42;35.78;;;21.98;;
12212;SDS011;6169;44.158;22.788;2024-03-08T11:16:46;45.38;;;22.15;;
12212;SDS011;6169;44.158;22.788;2024-03-08T11:21:48;29.25;;;16.40;;
12212;SDS011;6169;44.158;22.788;2024-03-08T11:26:59;33.97;;;18.52;;
12212;SDS011;6169;44.158;22.788;2024-03-08T11:32:05;36.85;;;20.33;;
12212;SDS011;6169;44.158;22.788;2024-03-08T11:37:13;36.72;;;20.70;;
12212;SDS011;6169;44.158;22.788;2024-03-08T11:42:15;30.83;;;18.02;;
12212;SDS011;6169;44.158;22.788;2024-03-08T11:47:20;30.23;;;18.10;;
12212;SDS011;6169;44.158;22.788;2024-03-08T11:52:22;31.33;;;17.90;;
12212;SDS011;6169;44.158;22.788;2024-03-08T11:57:26;30.20;;;18.17;;
12212;SDS011;6169;44.158;22.788;2024-03-08T12:02:30;36.80;;;18.88;;
12212;SDS011;6169;44.158;22.788;2024-03-08T12:07:32;28.60;;;18.90;;
12212;SDS011;6169;44.158;22.788;2024-03-08T12:12:34;33.53;;;18.52;;
12212;SDS011;6169;44.158;22.788;2024-03-08T12:17:37;31.70;;;17.83;;
12212;SDS011;6169;44.158;22.788;2024-03-08T12:22:41;38.80;;;20.70;;
12212;SDS011;6169;44.158;22.788;2024-03-08T12:27:43;45.83;;;22.13;;
12212;SDS011;6169;44.158;22.788;2024-03-08T12:32:48;40.42;;;22.38;;
12212;SDS011;6169;44.158;22.788;2024-03-08T12:37:53;42.95;;;23.73;;
12212;SDS011;6169;44.158;22.788;2024-03-08T12:42:56;43.50;;;22.52;;
12212;SDS011;6169;44.158;22.788;2024-03-08T12:48:00;41.35;;;24.35;;
12212;SDS011;6169;44.158;22.788;2024-03-08T12:53:03;42.88;;;22.42;;
12212;SDS011;6169;44.158;22.788;2024-03-08T12:58:05;39.08;;;20.23;;
12212;SDS011;6169;44.158;22.788;2024-03-08T13:03:09;41.20;;;24.85;;
12212;SDS011;6169;44.158;22.788;2024-03-08T13:08:11;34.65;;;20.10;;
12212;SDS011;6169;44.158;22.788;2024-03-08T13:13:13;37.75;;;21.33;;
12212;SDS011;6169;44.158;22.788;2024-03-08T13:18:18;37.45;;;21.20;;
12212;SDS011;6169;44.158;22.788;2024-03-08T13:23:21;39.92;;;19.40;;
12212;SDS011;6169;44.158;22.788;2024-03-08T13:28:23;31.92;;;18.83;;
12212;SDS011;6169;44.158;22.788;2024-03-08T13:33:31;35.28;;;19.67;;
12212;SDS011;6169;44.158;22.788;2024-03-08T13:38:35;38.13;;;22.77;;
12212;SDS011;6169;44.158;22.788;2024-03-08T13:43:38;37.10;;;20.95;;
12212;SDS011;6169;44.158;22.788;2024-03-08T13:48:42;37.53;;;19.42;;
12212;SDS011;6169;44.158;22.788;2024-03-08T13:53:44;33.40;;;19.65;;
12212;SDS011;6169;44.158;22.788;2024-03-08T13:58:47;36.90;;;22.25;;
12212;SDS011;6169;44.158;22.788;2024-03-08T14:03:50;40.53;;;22.00;;
12212;SDS011;6169;44.158;22.788;2024-03-08T14:08:52;34.88;;;20.75;;
12212;SDS011;6169;44.158;22.788;2024-03-08T14:13:58;44.47;;;22.15;;
12212;SDS011;6169;44.158;22.788;2024-03-08T14:19:01;34.83;;;20.77;;
12212;SDS011;6169;44.158;22.788;2024-03-08T14:24:06;40.35;;;22.05;;
12212;SDS011;6169;44.158;22.788;2024-03-08T14:29:08;36.13;;;20.92;;
12212;SDS011;6169;44.158;22.788;2024-03-08T14:34:12;32.97;;;19.90;;
12212;SDS011;6169;44.158;22.788;2024-03-08T14:39:15;35.22;;;19.88;;
12212;SDS011;6169;44.158;22.788;2024-03-08T14:44:21;39.47;;;21.65;;
12212;SDS011;6169;44.158;22.788;2024-03-08T14:49:27;40.55;;;21.92;;
12212;SDS011;6169;44.158;22.788;2024-03-08T14:54:29;35.90;;;23.10;;
12212;SDS011;6169;44.158;22.788;2024-03-08T14:59:31;51.80;;;25.45;;
12212;SDS011;6169;44.158;22.788;2024-03-08T15:04:35;64.28;;;34.15;;
12212;SDS011;6169;44.158;22.788;2024-03-08T15:09:37;46.35;;;24.05;;
12212;SDS011;6169;44.158;22.788;2024-03-08T15:14:41;52.03;;;27.10;;
12212;SDS011;6169;44.158;22.788;2024-03-08T15:19:45;62.20;;;32.55;;
12212;SDS011;6169;44.158;22.788;2024-03-08T15:24:48;69.63;;;34.35;;
12212;SDS011;6169;44.158;22.788;2024-03-08T15:29:51;50.85;;;29.42;;
12212;SDS011;6169;44.158;22.788;2024-03-08T15:34:57;38.83;;;21.77;;
12212;SDS011;6169;44.158;22.788;2024-03-08T15:39:59;37.25;;;22.27;;
12212;SDS011;6169;44.158;22.788;2024-03-08T15:45:06;39.13;;;21.17;;
12212;SDS011;6169;44.158;22.788;2024-03-08T15:50:13;41.28;;;20.60;;
12212;SDS011;6169;44.158;22.788;2024-03-08T15:55:15;38.85;;;20.40;;
12212;SDS011;6169;44.158;22.788;2024-03-08T16:00:21;33.58;;;19.38;;
12212;SDS011;6169;44.158;22.788;2024-03-08T16:05:35;32.83;;;18.92;;
12212;SDS011;6169;44.158;22.788;2024-03-08T16:10:37;35.38;;;21.05;;
12212;SDS011;6169;44.158;22.788;2024-03-08T16:15:39;37.67;;;21.60;;
12212;SDS011;6169;44.158;22.788;2024-03-08T16:20:43;41.65;;;23.70;;
12212;SDS011;6169;44.158;22.788;2024-03-08T16:25:47;33.42;;;20.60;;
12212;SDS011;6169;44.158;22.788;2024-03-08T16:30:49;43.25;;;24.77;;
12212;SDS011;6169;44.158;22.788;2024-03-08T16:35:55;66.15;;;23.80;;
12212;SDS011;6169;44.158;22.788;2024-03-08T16:40:57;41.28;;;23.30;;
12212;SDS011;6169;44.158;22.788;2024-03-08T16:46:00;37.67;;;23.45;;
12212;SDS011;6169;44.158;22.788;2024-03-08T16:51:05;39.67;;;21.75;;
12212;SDS011;6169;44.158;22.788;2024-03-08T16:56:09;44.30;;;26.88;;
12212;SDS011;6169;44.158;22.788;2024-03-08T17:01:12;40.45;;;24.63;;
12212;SDS011;6169;44.158;22.788;2024-03-08T17:06:15;33.72;;;21.60;;
12212;SDS011;6169;44.158;22.788;2024-03-08T17:11:18;36.83;;;21.30;;
12212;SDS011;6169;44.158;22.788;2024-03-08T17:16:20;36.08;;;21.48;;
12212;SDS011;6169;44.158;22.788;2024-03-08T17:21:26;34.85;;;19.67;;
12212;SDS011;6169;44.158;22.788;2024-03-08T17:26:28;42.00;;;22.67;;
12212;SDS011;6169;44.158;22.788;2024-03-08T17:31:30;39.42;;;21.70;;
12212;SDS011;6169;44.158;22.788;2024-03-08T17:36:34;43.72;;;21.85;;
12212;SDS011;6169;44.158;22.788;2024-03-08T17:41:36;39.40;;;22.05;;
12212;SDS011;6169;44.158;22.788;2024-03-08T17:46:40;32.58;;;19.88;;
12212;SDS011;6169;44.158;22.788;2024-03-08T17:51:44;39.00;;;20.90;;
12212;SDS011;6169;44.158;22.788;2024-03-08T17:56:46;40.40;;;21.30;;
12212;SDS011;6169;44.158;22.788;2024-03-08T18:01:48;36.75;;;21.90;;
12212;SDS011;6169;44.158;22.788;2024-03-08T18:06:52;34.17;;;22.33;;
12212;SDS011;6169;44.158;22.788;2024-03-08T18:11:54;38.38;;;22.60;;
12212;SDS011;6169;44.158;22.788;2024-03-08T18:16:59;47.85;;;26.67;;
12212;SDS011;6169;44.158;22.788;2024-03-08T18:22:02;45.23;;;25.13;;
12212;SDS011;6169;44.158;22.788;2024-03-08T18:27:05;39.97;;;23.33;;
12212;SDS011;6169;44.158;22.788;2024-03-08T18:32:07;45.15;;;24.63;;
12212;SDS011;6169;44.158;22.788;2024-03-08T18:37:11;40.83;;;24.20;;
12212;SDS011;6169;44.158;22.788;2024-03-08T18:42:13;39.53;;;22.70;;
12212;SDS011;6169;44.158;22.788;2024-03-08T18:47:15;39.90;;;21.50;;
12212;SDS011;6169;44.158;22.788;2024-03-08T18:52:19;31.80;;;18.98;;
12212;SDS011;6169;44.158;22.788;2024-03-08T18:57:21;40.78;;;21.80;;
12212;SDS011;6169;44.158;22.788;2024-03-08T19:02:23;36.58;;;20.05;;
12212;SDS011;6169;44.158;22.788;2024-03-08T19:07:27;37.05;;;20.95;;
12212;SDS011;6169;44.158;22.788;2024-03-08T19:12:30;44.73;;;26.30;;
12212;SDS011;6169;44.158;22.788;2024-03-08T19:17:33;45.17;;;26.00;;
12212;SDS011;6169;44.158;22.788;2024-03-08T19:22:37;53.77;;;26.83;;
12212;SDS011;6169;44.158;22.788;2024-03-08T19:27:39;35.03;;;19.40;;
12212;SDS011;6169;44.158;22.788;2024-03-08T19:32:42;42.50;;;21.93;;
12212;SDS011;6169;44.158;22.788;2024-03-08T19:37:46;35.17;;;21.33;;
12212;SDS011;6169;44.158;22.788;2024-03-08T19:42:48;38.58;;;20.05;;
12212;SDS011;6169;44.158;22.788;2024-03-08T19:47:52;39.03;;;21.43;;
12212;SDS011;6169;44.158;22.788;2024-03-08T19:52:56;42.13;;;22.23;;
12212;SDS011;6169;44.158;22.788;2024-03-08T19:58:04;43.03;;;24.17;;
12212;SDS011;6169;44.158;22.788;2024-03-08T20:03:07;37.25;;;22.83;;
12212;SDS011;6169;44.158;22.788;2024-03-08T20:08:12;38.17;;;22.37;;
12212;SDS011;6169;44.158;22.788;2024-03-08T20:13:14;42.83;;;26.27;;
12212;SDS011;6169;44.158;22.788;2024-03-08T20:18:17;48.73;;;24.63;;
12212;SDS011;6169;44.158;22.788;2024-03-08T20:23:24;46.17;;;26.40;;
12212;SDS011;6169;44.158;22.788;2024-03-08T20:28:29;44.47;;;24.87;;
12212;SDS011;6169;44.158;22.788;2024-03-08T20:33:32;48.47;;;24.70;;
12212;SDS011;6169;44.158;22.788;2024-03-08T20:38:38;38.53;;;21.60;;
12212;SDS011;6169;44.158;22.788;2024-03-08T20:43:40;41.60;;;22.90;;
12212;SDS011;6169;44.158;22.788;2024-03-08T20:48:42;39.63;;;22.23;;
12212;SDS011;6169;44.158;22.788;2024-03-08T20:53:47;38.23;;;22.40;;
12212;SDS011;6169;44.158;22.788;2024-03-08T20:58:49;42.87;;;21.20;;
12212;SDS011;6169;44.158;22.788;2024-03-08T21:03:52;39.50;;;22.70;;
12212;SDS011;6169;44.158;22.788;2024-03-08T21:08:56;38.27;;;21.27;;
12212;SDS011;6169;44.158;22.788;2024-03-08T21:13:58;41.30;;;22.43;;
12212;SDS011;6169;44.158;22.788;2024-03-08T21:19:00;42.83;;;23.80;;
12212;SDS011;6169;44.158;22.788;2024-03-08T21:24:04;36.63;;;22.43;;
12212;SDS011;6169;44.158;22.788;2024-03-08T21:29:07;37.00;;;21.70;;
12212;SDS011;6169;44.158;22.788;2024-03-08T21:34:09;43.40;;;22.60;;
12212;SDS011;6169;44.158;22.788;2024-03-08T21:39:12;41.93;;;24.63;;
12212;SDS011;6169;44.158;22.788;2024-03-08T21:44:14;45.03;;;23.70;;
12212;SDS011;6169;44.158;22.788;2024-03-08T21:49:17;37.87;;;19.67;;
12212;SDS011;6169;44.158;22.788;2024-03-08T21:54:21;47.37;;;24.17;;
12212;SDS011;6169;44.158;22.788;2024-03-08T21:59:23;44.90;;;26.70;;
12212;SDS011;6169;44.158;22.788;2024-03-08T22:04:25;40.10;;;23.20;;
12212;SDS011;6169;44.158;22.788;2024-03-08T22:09:30;47.93;;;25.73;;
12212;SDS011;6169;44.158;22.788;2024-03-08T22:14:33;41.63;;;25.03;;
12212;SDS011;6169;44.158;22.788;2024-03-08T22:19:35;44.13;;;25.73;;
12212;SDS011;6169;44.158;22.788;2024-03-08T22:24:38;33.17;;;21.57;;
12212;SDS011;6169;44.158;22.788;2024-03-08T22:29:41;39.47;;;21.50;;
12212;SDS011;6169;44.158;22.788;2024-03-08T22:34:43;43.70;;;21.93;;
12212;SDS011;6169;44.158;22.788;2024-03-08T22:39:46;36.03;;;19.93;;
12212;SDS011;6169;44.158;22.788;2024-03-08T22:44:49;47.00;;;22.90;;
12212;SDS011;6169;44.158;22.788;2024-03-08T22:49:51;42.87;;;22.27;;
12212;SDS011;6169;44.158;22.788;2024-03-08T22:54:55;33.90;;;20.03;;
12212;SDS011;6169;44.158;22.788;2024-03-08T22:59:57;33.57;;;20.57;;
12212;SDS011;6169;44.158;22.788;2024-03-08T23:04:59;37.13;;;21.63;;
12212;SDS011;6169;44.158;22.788;2024-03-08T23:10:03;33.10;;;20.73;;
12212;SDS011;6169;44.158;22.788;2024-03-08T23:15:08;46.17;;;24.53;;
12212;SDS011;6169;44.158;22.788;2024-03-08T23:20:13;65.07;;;32.87;;
12212;SDS011;6169;44.158;22.788;2024-03-08T23:25:17;45.97;;;24.80;;
12212;SDS011;6169;44.158;22.788;2024-03-08T23:30:20;38.17;;;21.83;;
12212;SDS011;6169;44.158;22.788;2024-03-08T23:35:23;42.03;;;22.70;;
12212;SDS011;6169;44.158;22.788;2024-03-08T23:40:28;32.83;;;18.93;;
12212;SDS011;6169;44.158;22.788;2024-03-08T23:45:30;34.53;;;19.23;;
12212;SDS011;6169;44.158;22.788;2024-03-08T23:50:34;35.77;;;20.03;;
12212;SDS011;6169;44.158;22.788;2024-03-08T23:55:38;26.47;;;16.20;;
